Time;durP1;ratioP1;P1;durP2;ratioP2;P2;SDS_P1;SDS_P2;PMS_P1;PMS_P2;Temp;Humidity;BMP_temperature;BMP_pressure;BME280_temperature;BME280_humidity;BME280_pressure;Samples;Min_cycle;Max_cycle;Signal;HPM_P1;HPM_P2
2022/05/05 00:01:41;;;;;;;;;;;;;;;;;;5075315;28;19943;-71
2022/05/05 00:04:07;;;;;;;;;;;;;;;;;;5075842;28;19999;-71
2022/05/05 00:06:33;;;;;;;;;;;;;;;;;;5074392;28;20296;-70
2022/05/05 00:08:59;;;;;;;;;;;;;;;;;;5075238;28;19915;-70
2022/05/05 00:14:28;;;;;;;;;;;;;;;;;;5075864;28;20001;-71
2022/05/05 00:16:54;;;;;;;;;;;;;;;;;;5095353;28;19912;-71
2022/05/05 00:19:20;;;;;;;;;;;;;;;;;;5095553;28;19932;-71
2022/05/05 00:21:46;;;;;;;;;;;;;;;;;;5095306;28;19915;-71
2022/05/05 00:24:12;;;;;;;;;;;;;;;;;;5095659;28;19954;-71
2022/05/05 00:26:38;;;;;;;;;;;;;;;;;;5095908;28;20418;-71
2022/05/05 00:29:05;;;;;;;;;;;;;;;;;;5095001;28;19912;-71
2022/05/05 00:31:31;;;;;;;;;;;;;;;;;;5095368;28;19908;-71
2022/05/05 00:33:56;;;;;;;;;;;;;;;;;;5095428;28;19909;-71
2022/05/05 00:36:22;;;;;;;;;;;;;;;;;;5076678;28;20421;-71
2022/05/05 00:38:48;;;;;;;;;;;;;;;;;;5094722;28;19908;-71
2022/05/05 00:41:14;;;;;;;;;;;;;;;;;;5095207;28;20261;-71
2022/05/05 00:43:40;;;;;;;;;;;;;;;;;;5094774;28;19908;-70
2022/05/05 00:46:06;;;;;;;;;;;;;;;;;;5095142;28;19908;-71
2022/05/05 00:48:32;;;;;;;;;;;;;;;;;;5095044;28;20388;-71
2022/05/05 00:50:58;;;;;;;;;;;;;;;;;;5094599;28;19993;-70
2022/05/05 00:53:24;;;;;;;;;;;;;;;;;;5076813;28;20397;-71
2022/05/05 00:55:50;;;;;;;;;;;;;;;;;;5094894;28;19916;-70
2022/05/05 00:58:16;;;;;;;;;;;;;;;;;;5094480;28;19951;-71
2022/05/05 01:00:42;;;;;;;;;;;;;;;;;;5095002;28;19961;-71
2022/05/05 01:03:09;;;;;;;;;;;;;;;;;;5095193;28;20257;-71
2022/05/05 01:05:35;;;;;;;;;;;;;;;;;;5094354;28;19908;-71
2022/05/05 01:08:01;;;;;;;;;;;;;;;;;;5076627;28;19953;-71
2022/05/05 01:10:27;;;;;;;;;;;;;;;;;;5094698;28;19908;-71
2022/05/05 01:12:53;;;;;;;;;;;;;;;;;;5094201;28;19908;-70
2022/05/05 01:15:19;;;;;;;;;;;;;;;;;;5094566;28;19921;-71
2022/05/05 01:17:45;;;;;;;;;;;;;;;;;;5095051;28;19923;-71
2022/05/05 01:20:11;;;;;;;;;;;;;;;;;;5094106;28;20011;-71
2022/05/05 01:22:37;;;;;;;;;;;;;;;;;;5094523;28;19908;-71
2022/05/05 01:30:32;;;;;;;;;;;;;;;;;;5094412;28;19954;-71
2022/05/05 01:32:58;;;;;;;;;;;;;;;;;;5094259;28;19948;-71
2022/05/05 01:35:24;;;;;;;;;;;;;;;;;;5094709;28;19923;-71
2022/05/05 01:37:50;;;;;;;;;;;;;;;;;;5094259;28;20288;-71
2022/05/05 01:40:16;;;;;;;;;;;;;;;;;;5093948;28;19916;-71
2022/05/05 01:42:42;;;;;;;;;;;;;;;;;;5094106;28;20405;-71
2022/05/05 01:45:08;;;;;;;;;;;;;;;;;;5094501;28;19909;-71
2022/05/05 01:47:36;;;;;;;;;;;;;;;;;;5093713;28;20310;-71
2022/05/05 01:50:02;;;;;;;;;;;;;;;;;;5093731;28;19977;-71
2022/05/05 01:52:28;;;;;;;;;;;;;;;;;;5093963;28;20364;-71
2022/05/05 01:54:54;;;;;;;;;;;;;;;;;;5093532;28;19959;-71
2022/05/05 01:57:20;;;;;;;;;;;;;;;;;;5094314;28;20284;-71
2022/05/05 01:59:46;;;;;;;;;;;;;;;;;;5075731;28;19995;-71
2022/05/05 02:02:12;;;;;;;;;;;;;;;;;;5093536;28;19983;-71
2022/05/05 02:04:38;;;;;;;;;;;;;;;;;;5075769;28;19915;-71
2022/05/05 02:07:04;;;;;;;;;;;;;;;;;;5093762;28;19919;-71
2022/05/05 02:09:33;;;;;;;;;;;;;;;;;;5093516;28;19977;-71
2022/05/05 02:11:59;;;;;;;;;;;;;;;;;;5093692;28;19915;-71
2022/05/05 02:14:25;;;;;;;;;;;;;;;;;;5093322;28;19908;-71
2022/05/05 02:16:51;;;;;;;;;;;;;;;;;;5093787;28;19939;-71
2022/05/05 02:19:17;;;;;;;;;;;;;;;;;;5093719;28;19940;-71
2022/05/05 02:21:43;;;;;;;;;;;;;;;;;;5093585;28;20322;-71
2022/05/05 02:24:09;;;;;;;;;;;;;;;;;;5093687;28;19942;-71
2022/05/05 02:26:35;;;;;;;;;;;;;;;;;;5093895;28;19908;-71
2022/05/05 02:29:02;;;;;;;;;;;;;;;;;;5093179;28;20357;-72
2022/05/05 02:31:28;;;;;;;;;;;;;;;;;;5093552;28;19994;-72
2022/05/05 02:33:54;;;;;;;;;;;;;;;;;;5075427;28;19930;-71
2022/05/05 02:39:04;;;;;;;;;;;;;;;;;;5093567;28;19965;-71
2022/05/05 02:41:30;;;;;;;;;;;;;;;;;;5093439;28;19908;-71
2022/05/05 02:43:56;;;;;;;;;;;;;;;;;;5093130;28;19908;-71
2022/05/05 02:46:22;;;;;;;;;;;;;;;;;;5093435;28;19908;-71
2022/05/05 02:48:48;;;;;;;;;;;;;;;;;;5093727;28;20418;-71
2022/05/05 02:51:14;;;;;;;;;;;;;;;;;;5093086;28;19927;-71
2022/05/05 02:56:24;;;;;;;;;;;;;;;;;;5093384;28;20283;-72
2022/05/05 02:58:50;;;;;;;;;;;;;;;;;;5092880;28;19908;-71
2022/05/05 03:01:16;;;;;;;;;;;;;;;;;;5093898;28;19961;-72
2022/05/05 03:03:42;;;;;;;;;;;;;;;;;;5097105;28;20365;-71
2022/05/05 03:06:08;;;;;;;;;;;;;;;;;;5097077;28;19908;-71
2022/05/05 03:08:34;;;;;;;;;;;;;;;;;;5097034;28;19935;-72
2022/05/05 03:11:00;;;;;;;;;;;;;;;;;;5096575;28;19908;-71
2022/05/05 03:13:26;;;;;;;;;;;;;;;;;;5097133;28;19908;-71
2022/05/05 03:15:52;;;;;;;;;;;;;;;;;;5096635;28;20409;-71
2022/05/05 03:18:18;;;;;;;;;;;;;;;;;;5078211;28;19995;-71
2022/05/05 03:20:44;;;;;;;;;;;;;;;;;;5078560;28;19994;-71
2022/05/05 03:23:10;;;;;;;;;;;;;;;;;;5096757;28;19908;-71
2022/05/05 03:25:37;;;;;;;;;;;;;;;;;;5096215;28;19908;-72
2022/05/05 03:28:03;;;;;;;;;;;;;;;;;;5096963;28;19908;-71
2022/05/05 03:30:29;;;;;;;;;;;;;;;;;;5096853;28;20329;-72
2022/05/05 03:32:55;;;;;;;;;;;;;;;;;;5096207;28;19951;-72
2022/05/05 03:35:21;;;;;;;;;;;;;;;;;;5096453;28;20394;-71
2022/05/05 03:37:47;;;;;;;;;;;;;;;;;;5096538;28;19908;-71
2022/05/05 03:40:13;;;;;;;;;;;;;;;;;;5096181;28;19987;-71
2022/05/05 03:42:39;;;;;;;;;;;;;;;;;;5096371;28;20015;-71
2022/05/05 03:45:05;;;;;;;;;;;;;;;;;;5096885;28;19908;-71
2022/05/05 03:47:31;;;;;;;;;;;;;;;;;;5095952;28;19961;-71
2022/05/05 03:49:57;;;;;;;;;;;;;;;;;;5078134;28;19915;-71
2022/05/05 03:52:23;;;;;;;;;;;;;;;;;;5078040;28;19916;-71
2022/05/05 03:54:49;;;;;;;;;;;;;;;;;;5077507;28;19912;-71
2022/05/05 03:57:15;;;;;;;;;;;;;;;;;;5096617;28;20445;-71
2022/05/05 03:59:41;;;;;;;;;;;;;;;;;;5096553;28;19908;-69
2022/05/05 04:02:07;;;;;;;;;;;;;;;;;;5095607;28;20315;-68
2022/05/05 04:04:33;;;;;;;;;;;;;;;;;;5096123;28;19961;-68
2022/05/05 04:06:59;;;;;;;;;;;;;;;;;;5095557;28;19915;-69
2022/05/05 04:09:25;;;;;;;;;;;;;;;;;;5095806;28;19967;-69
2022/05/05 04:11:51;;;;;;;;;;;;;;;;;;5096125;28;19912;-69
2022/05/05 04:14:17;;;;;;;;;;;;;;;;;;5095018;28;19952;-68
2022/05/05 04:16:43;;;;;;;;;;;;;;;;;;5095820;28;19908;-68
2022/05/05 04:19:10;;;;;;;;;;;;;;;;;;5077534;28;19908;-69
2022/05/05 04:21:36;;;;;;;;;;;;;;;;;;5077078;28;19915;-69
2022/05/05 04:24:02;;;;;;;;;;;;;;;;;;5095652;28;19933;-69
2022/05/05 04:26:28;;;;;;;;;;;;;;;;;;5095536;28;20002;-69
2022/05/05 04:28:56;;;;;;;;;;;;;;;;;;5095179;28;19908;-70
2022/05/05 04:31:22;;;;;;;;;;;;;;;;;;5095498;28;19912;-69
2022/05/05 04:33:48;;;;;;;;;;;;;;;;;;5095348;28;19909;-68
2022/05/05 04:36:15;;;;;;;;;;;;;;;;;;5094911;28;20286;-68
2022/05/05 04:38:41;;;;;;;;;;;;;;;;;;5095477;28;19915;-68
2022/05/05 04:41:07;;;;;;;;;;;;;;;;;;5095200;28;20291;-69
2022/05/05 04:43:33;;;;;;;;;;;;;;;;;;5094678;28;19908;-68
2022/05/05 04:45:59;;;;;;;;;;;;;;;;;;5093777;28;19915;-69
2022/05/05 04:48:25;;;;;;;;;;;;;;;;;;5093315;28;20280;-68
2022/05/05 04:50:51;;;;;;;;;;;;;;;;;;5076251;28;19946;-68
2022/05/05 04:53:17;;;;;;;;;;;;;;;;;;5076724;28;19916;-68
2022/05/05 04:55:43;;;;;;;;;;;;;;;;;;5094448;28;19916;-68
2022/05/05 04:58:09;;;;;;;;;;;;;;;;;;5075353;28;19908;-68
2022/05/05 05:00:36;;;;;;;;;;;;;;;;;;5094863;28;19909;-68
2022/05/05 05:03:02;;;;;;;;;;;;;;;;;;5075364;28;20385;-68
2022/05/05 05:05:28;;;;;;;;;;;;;;;;;;5092271;28;19908;-67
2022/05/05 05:07:54;;;;;;;;;;;;;;;;;;5092230;28;19908;-68
2022/05/05 05:10:20;;;;;;;;;;;;;;;;;;5092222;28;19908;-68
2022/05/05 05:12:47;;;;;;;;;;;;;;;;;;5092401;28;19913;-68
2022/05/05 05:15:13;;;;;;;;;;;;;;;;;;5074123;28;19947;-69
2022/05/05 05:17:39;;;;;;;;;;;;;;;;;;5091029;28;19940;-67
2022/05/05 05:20:05;;;;;;;;;;;;;;;;;;5093965;28;19935;-67
2022/05/05 05:22:31;;;;;;;;;;;;;;;;;;5083892;28;19916;-68
2022/05/05 05:24:57;;;;;;;;;;;;;;;;;;5090083;28;19908;-67
2022/05/05 05:27:23;;;;;;;;;;;;;;;;;;5078022;28;19935;-67
2022/05/05 05:29:49;;;;;;;;;;;;;;;;;;5070910;28;19909;-66
2022/05/05 05:32:15;;;;;;;;;;;;;;;;;;5066765;28;20298;-68
2022/05/05 05:34:41;;;;;;;;;;;;;;;;;;5071647;28;20070;-66
2022/05/05 05:37:07;;;;;;;;;;;;;;;;;;5090034;28;20027;-67
2022/05/05 05:39:33;;;;;;;;;;;;;;;;;;5089817;28;20611;-67
2022/05/05 05:41:59;;;;;;;;;;;;;;;;;;5073291;28;19967;-67
2022/05/05 05:44:25;;;;;;;;;;;;;;;;;;5092395;28;19915;-68
2022/05/05 05:46:51;;;;;;;;;;;;;;;;;;5093046;28;19908;-67
2022/05/05 05:49:17;;;;;;;;;;;;;;;;;;5075365;28;19930;-68
2022/05/05 05:51:43;;;;;;;;;;;;;;;;;;5093566;28;20356;-66
2022/05/05 05:54:09;;;;;;;;;;;;;;;;;;5092327;28;19915;-67
2022/05/05 05:56:35;;;;;;;;;;;;;;;;;;5091179;28;19946;-67
2022/05/05 05:59:02;;;;;;;;;;;;;;;;;;5083942;28;19939;-67
2022/05/05 06:05:46;;;;;;;;;;;;;;;;;;5088540;27;19917;-68
2022/05/05 06:08:12;;;;;;;;;;;;;;;;;;5084196;28;19912;-67
2022/05/05 06:10:38;;;;;;;;;;;;;;;;;;5085468;28;19920;-66
2022/05/05 06:13:05;;;;;;;;;;;;;;;;;;5089087;28;19991;-67
2022/05/05 06:15:45;;;;;;;;;;;;;;;;;;5087940;27;19912;-66
2022/05/05 06:20:51;;;;;;;;;;;;;;;;;;5089486;27;19917;-67
2022/05/05 06:23:17;;;;;;;;;;;;;;;;;;5090183;28;19958;-68
2022/05/05 06:25:43;;;;;;;;;;;;;;;;;;5090106;28;20327;-67
2022/05/05 06:32:00;;;;;;;;;;;;;;;;;;5090929;27;20391;-69
2022/05/05 06:34:26;;;;;;;;;;;;;;;;;;5087644;28;20011;-68
2022/05/05 06:40:50;;;;;;;;;;;;;;;;;;5090278;28;19920;-69
2022/05/05 06:45:38;;;;;;;;;;;;;;;;;;5090336;28;19922;-68
2022/05/05 06:53:00;;;;;;;;;;;;;;;;;;5107128;27;19918;-67
2022/05/05 06:56:10;;;;;;;;;;;;;;;;;;5087699;27;19987;-68
2022/05/05 06:58:36;;;;;;;;;;;;;;;;;;5088564;28;19912;-69
2022/05/05 07:06:19;;;;;;;;;;;;;;;;;;5151350;27;19925;-68
2022/05/05 07:14:44;;;;;;;;;;;;;;;;;;5090422;27;19923;-68
2022/05/05 07:17:10;;;;;;;;;;;;;;;;;;5089370;28;19913;-68
2022/05/05 07:19:36;;;;;;;;;;;;;;;;;;5088965;28;19916;-67
2022/05/05 07:22:02;;;;;;;;;;;;;;;;;;5089200;28;19912;-68
2022/05/05 07:24:32;;;;;;;;;;;;;;;;;;5088971;28;20221;-68
2022/05/05 07:27:17;;;;;;;;;;;;;;;;;;5110394;27;19916;-72
2022/05/05 07:31:23;;;;;;;;;;;;;;;;;;5089302;27;19923;-71
2022/05/05 07:33:49;;;;;;;;;;;;;;;;;;5087791;28;19913;-69
2022/05/05 07:36:15;;;;;;;;;;;;;;;;;;5088984;28;19909;-70
2022/05/05 07:38:41;;;;;;;;;;;;;;;;;;5087928;28;19912;-71
2022/05/05 07:41:41;;;;;;;;;;;;;;;;;;5133643;27;19915;-69
2022/05/05 07:44:55;;;;;;;;;;;;;;;;;;5087905;27;19916;-69
2022/05/05 07:47:21;;;;;;;;;;;;;;;;;;5103042;28;19919;-70
2022/05/05 07:49:47;;;;;;;;;;;;;;;;;;5107606;28;19912;-69
2022/05/05 07:52:29;;;;;;;;;;;;;;;;;;5079826;27;19920;-68
2022/05/05 07:54:55;;;;;;;;;;;;;;;;;;5069240;28;19964;-68
2022/05/05 07:58:03;;;;;;;;;;;;;;;;;;5149395;27;19922;-69
2022/05/05 08:00:28;;;;;;;;;;;;;;;;;;5138479;27;20100;-67
2022/05/05 08:02:54;;;;;;;;;;;;;;;;;;5108222;28;20372;-67
2022/05/05 08:05:20;;;;;;;;;;;;;;;;;;5111640;28;19951;-68
2022/05/05 08:07:48;;;;;;;;;;;;;;;;;;5129878;28;20350;-68
2022/05/05 08:10:14;;;;;;;;;;;;;;;;;;5122116;27;19911;-68
2022/05/05 08:12:40;;;;;;;;;;;;;;;;;;5151587;27;20363;-68
2022/05/05 08:15:07;;;;;;;;;;;;;;;;;;5128814;27;20008;-68
2022/05/05 08:19:31;;;;;;;;;;;;;;;;;;5069922;27;19921;-67
2022/05/05 08:21:58;;;;;;;;;;;;;;;;;;5086933;28;19912;-70
2022/05/05 08:29:35;;;;;;;;;;;;;;;;;;5088369;28;19912;-69
2022/05/05 08:38:30;;;;;;;;;;;;;;;;;;5130991;27;19913;-67
2022/05/05 08:43:07;;;;;;;;;;;;;;;;;;5109835;27;19916;-68
2022/05/05 08:45:34;;;;;;;;;;;;;;;;;;5110593;28;19916;-68
2022/05/05 08:48:00;;;;;;;;;;;;;;;;;;5101702;28;19908;-67
2022/05/05 08:50:26;;;;;;;;;;;;;;;;;;5088989;28;19948;-68
2022/05/05 08:54:10;;;;;;;;;;;;;;;;;;5090525;27;19917;-68
2022/05/05 08:56:36;;;;;;;;;;;;;;;;;;5090137;28;19912;-67
2022/05/05 08:59:03;;;;;;;;;;;;;;;;;;5089172;28;19961;-66
2022/05/05 09:02:16;;;;;;;;;;;;;;;;;;5110300;27;19915;-66
2022/05/05 09:06:00;;;;;;;;;;;;;;;;;;5088072;27;19927;-66
2022/05/05 09:09:41;;;;;;;;;;;;;;;;;;5107942;27;19916;-66
2022/05/05 09:13:17;;;;;;;;;;;;;;;;;;5088350;27;20455;-67
2022/05/05 09:15:43;;;;;;;;;;;;;;;;;;5087514;28;19916;-67
2022/05/05 09:18:38;;;;;;;;;;;;;;;;;;5086043;27;19935;-66
2022/05/05 09:21:57;;;;;;;;;;;;;;;;;;5092004;27;19922;-65
2022/05/05 09:27:44;;;;;;;;;;;;;;;;;;5126712;27;19956;-66
2022/05/05 09:33:41;;;;;;;;;;;;;;;;;;5107419;27;19912;-66
2022/05/05 09:36:07;;;;;;;;;;;;;;;;;;5110060;28;19916;-67
2022/05/05 09:42:36;;;;;;;;;;;;;;;;;;5086452;27;19916;-66
2022/05/05 09:45:02;;;;;;;;;;;;;;;;;;5087453;28;20029;-66
2022/05/05 09:49:48;;;;;;;;;;;;;;;;;;5077588;27;19916;-66
2022/05/05 10:04:00;;;;;;;;;;;;;;;;;;5088025;27;19918;-68
2022/05/05 10:05:08;;;;;;;;;;;;;;;;;;5089143;28;20385;-68
2022/05/05 10:07:34;;;;;;;;;;;;;;;;;;5089915;28;19951;-68
2022/05/05 10:10:00;;;;;;;;;;;;;;;;;;5088651;28;19971;-67
2022/05/05 10:12:27;;;;;;;;;;;;;;;;;;5087342;28;19909;-68
2022/05/05 10:14:53;;;;;;;;;;;;;;;;;;5089024;28;19912;-68
2022/05/05 10:17:20;;;;;;;;;;;;;;;;;;5088872;28;20015;-68
2022/05/05 10:20:50;;;;;;;;;;;;;;;;;;5088574;27;19927;-69
2022/05/05 10:23:16;;;;;;;;;;;;;;;;;;5088514;28;19966;-68
2022/05/05 10:25:42;;;;;;;;;;;;;;;;;;5086762;28;19908;-68
2022/05/05 10:28:08;;;;;;;;;;;;;;;;;;5089007;28;19915;-67
2022/05/05 10:30:34;;;;;;;;;;;;;;;;;;5090234;28;19908;-68
2022/05/05 10:33:46;;;;;;;;;;;;;;;;;;5089174;27;19917;-67
2022/05/05 10:36:12;;;;;;;;;;;;;;;;;;5097780;28;19951;-67
2022/05/05 10:41:46;;;;;;;;;;;;;;;;;;5090374;27;19916;-66
2022/05/05 10:44:12;;;;;;;;;;;;;;;;;;5088896;28;19920;-67
2022/05/05 10:46:38;;;;;;;;;;;;;;;;;;5086671;28;19912;-67
2022/05/05 10:49:05;;;;;;;;;;;;;;;;;;5085396;28;19908;-67
2022/05/05 10:51:31;;;;;;;;;;;;;;;;;;5076640;28;19908;-69
2022/05/05 10:53:57;;;;;;;;;;;;;;;;;;5067302;28;19916;-69
2022/05/05 10:58:18;;;;;;;;;;;;;;;;;;5098133;28;19923;-68
2022/05/05 11:02:32;;;;;;;;;;;;;;;;;;5088907;27;19921;-67
2022/05/05 11:04:58;;;;;;;;;;;;;;;;;;5088462;28;19916;-67
2022/05/05 11:08:17;;;;;;;;;;;;;;;;;;5089810;28;19927;-67
2022/05/05 11:10:44;;;;;;;;;;;;;;;;;;5086823;28;19916;-67
2022/05/05 11:13:10;;;;;;;;;;;;;;;;;;5088430;28;19909;-66
2022/05/05 11:22:05;;;;;;;;;;;;;;;;;;5088263;27;19921;-67
2022/05/05 11:24:31;;;;;;;;;;;;;;;;;;5087752;28;19912;-65
2022/05/05 11:26:58;;;;;;;4.78;2.58;;;;;;;;;;5088707;28;20372;-65
2022/05/05 11:29:28;;;;;;;6.18;2.40;;;;;;;;;;5089358;28;20036;-67
2022/05/05 11:31:59;;;;;;;4.18;2.22;;;;;;;;;;5087956;28;20082;-68
2022/05/05 11:34:51;;;;;;;3.47;1.58;;;;;;;;;;5088859;28;20016;-66
2022/05/05 11:37:17;;;;;;;3.05;1.67;;;;;;;;;;5056231;28;20120;-68
2022/05/05 11:39:46;;;;;;;4.65;1.65;;;;;;;;;;5057808;28;20032;-70
2022/05/05 11:42:12;;;;;;;3.42;1.67;;;;;;;;;;5049384;28;20382;-67
2022/05/05 11:44:43;;;;;;;5.97;1.92;;;;;;;;;;5049289;28;20071;-68
2022/05/05 11:47:11;;;;;;;6.97;2.00;;;;;;;;;;5049329;28;20358;-67
2022/05/05 11:49:37;;;;;;;3.05;1.80;;;;;;;;;;5049658;28;20017;-66
2022/05/05 11:52:04;;;;;;;6.00;2.20;;;;;;;;;;5058875;28;20032;-67
2022/05/05 11:54:32;;;;;;;3.78;1.63;;;;;;;;;;5088254;28;20070;-67
2022/05/05 11:56:58;;;;;;;3.83;1.58;;;;;;;;;;5089739;28;20104;-67
2022/05/05 12:02:20;;;;;;;3.25;1.50;;;;;;;;;;5089599;28;20059;-67
2022/05/05 12:04:49;;;;;;;4.55;2.05;;;;;;;;;;5089688;28;20028;-68
2022/05/05 12:07:20;;;;;;;3.33;1.50;;;;;;;;;;5089305;28;20052;-68
2022/05/05 12:09:50;;;;;;;5.03;1.67;;;;;;;;;;5089204;28;20084;-67
2022/05/05 12:12:20;;;;;;;2.40;1.63;;;;;;;;;;5088815;28;20028;-67
2022/05/05 12:14:48;;;;;;;3.67;1.40;;;;;;;;;;5089339;28;20016;-67
2022/05/05 12:17:19;;;;;;;3.65;1.67;;;;;;;;;;5089202;28;20047;-65
2022/05/05 12:19:53;;;;;;;2.58;1.70;;;;;;;;;;5087459;28;20044;-65
2022/05/05 12:22:28;;;;;;;4.13;1.92;;;;;;;;;;5089401;28;20393;-66
2022/05/05 12:24:54;;;;;;;4.10;1.70;;;;;;;;;;5089769;28;20032;-66
2022/05/05 12:27:27;;;;;;;3.75;1.60;;;;;;;;;;5087990;28;20024;-65
2022/05/05 12:29:54;;;;;;;2.63;1.60;;;;;;;;;;5089248;28;20028;-65
2022/05/05 12:32:20;;;;;;;5.88;1.80;;;;;;;;;;5081556;28;20385;-65
2022/05/05 12:34:47;;;;;;;2.15;1.48;;;;;;;;;;5075406;28;20050;-65
2022/05/05 12:37:16;;;;;;;6.38;1.77;;;;;;;;;;5075948;28;20370;-65
2022/05/05 12:40:12;;;;;;;3.08;1.60;;;;;;;;;;5075607;28;20415;-65
2022/05/05 12:42:48;;;;;;;2.30;1.50;;;;;;;;;;5067231;28;20043;-67
2022/05/05 12:45:16;;;;;;;2.75;1.60;;;;;;;;;;5055559;28;20425;-66
2022/05/05 12:47:43;;;;;;;4.55;1.63;;;;;;;;;;5055212;28;20021;-66
2022/05/05 12:50:27;;;;;;;6.95;1.60;;;;;;;;;;5055305;28;20028;-67
2022/05/05 13:01:09;;;;;;;3.15;1.50;;;;;;;;;;5073659;28;20048;-67
2022/05/05 13:03:36;;;;;;;1.65;1.10;;;;;;;;;;5072844;28;20412;-67
2022/05/05 13:06:03;;;;;;;4.18;1.65;;;;;;;;;;5073089;28;20021;-68
2022/05/05 13:08:29;;;;;;;3.47;1.83;;;;;;;;;;5072937;28;20058;-67
2022/05/05 13:10:55;;;;;;;2.65;1.85;;;;;;;;;;5073789;28;20051;-67
2022/05/05 13:13:21;;;;;;;3.17;1.63;;;;;;;;;;5074795;28;20473;-68
2022/05/05 13:15:48;;;;;;;2.40;1.35;;;;;;;;;;5074704;28;20024;-67
2022/05/05 13:18:14;;;;;;;4.38;2.05;;;;;;;;;;5074518;28;20354;-67
2022/05/05 13:20:40;;;;;;;2.85;1.50;;;;;;;;;;5074777;28;20044;-67
2022/05/05 13:23:06;;;;;;;5.15;1.55;;;;;;;;;;5075237;28;20476;-67
2022/05/05 13:25:32;;;;;;;2.53;1.40;;;;;;;;;;5075304;28;20157;-68
2022/05/05 13:28:00;;;;;;;4.72;1.60;;;;;;;;;;5074995;28;20074;-68
2022/05/05 13:30:27;;;;;;;4.18;1.20;;;;;;;;;;5074529;28;20016;-68
2022/05/05 13:32:53;;;;;;;3.20;1.13;;;;;;;;;;5073506;28;20400;-68
2022/05/05 13:35:19;;;;;;;2.58;1.45;;;;;;;;;;5075129;28;20029;-67
2022/05/05 13:37:46;;;;;;;4.40;1.48;;;;;;;;;;5074396;28;20021;-67
2022/05/05 13:40:13;;;;;;;4.00;1.95;;;;;;;;;;5074805;28;20028;-67
2022/05/05 13:42:39;;;;;;;2.45;1.30;;;;;;;;;;5074672;28;20060;-67
2022/05/05 13:45:05;;;;;;;2.60;1.45;;;;;;;;;;5073302;28;20099;-68
2022/05/05 13:47:32;;;;;;;3.10;1.33;;;;;;;;;;5074740;28;20024;-68
2022/05/05 13:49:58;;;;;;;4.72;1.70;;;;;;;;;;5074462;28;20048;-68
2022/05/05 13:52:24;;;;;;;3.13;1.50;;;;;;;;;;5074168;28;20179;-67
2022/05/05 13:54:50;;;;;;;3.70;1.25;;;;;;;;;;5074452;28;20029;-68
2022/05/05 13:57:16;;;;;;;3.05;1.40;;;;;;;;;;5074470;28;20016;-68
2022/05/05 13:59:44;;;;;;;3.55;1.40;;;;;;;;;;5073907;28;20025;-68
2022/05/05 14:02:10;;;;;;;2.75;1.30;;;;;;;;;;5074534;28;20028;-68
2022/05/05 14:04:36;;;;;;;2.88;1.20;;;;;;;;;;5074540;28;20495;-68
2022/05/05 14:07:03;;;;;;;1.85;1.20;;;;;;;;;;5073751;28;20073;-68
2022/05/05 14:12:17;;;;;;;3.78;1.65;;;;;;;;;;5074050;28;20035;-68
2022/05/05 14:14:44;;;;;;;2.38;1.15;;;;;;;;;;5074200;28;20074;-68
2022/05/05 14:17:13;;;;;;;2.15;1.40;;;;;;;;;;5074009;28;20469;-68
2022/05/05 14:19:40;;;;;;;2.03;1.23;;;;;;;;;;5073571;28;20419;-67
2022/05/05 14:22:07;;;;;;;4.45;1.60;;;;;;;;;;5073729;28;20032;-68
2022/05/05 14:24:33;;;;;;;3.00;1.52;;;;;;;;;;5073788;28;20031;-68
2022/05/05 14:27:01;;;;;;;3.92;1.95;;;;;;;;;;5073191;28;20530;-68
2022/05/05 14:29:27;;;;;;;2.30;1.45;;;;;;;;;;5072361;28;20026;-69
2022/05/05 14:31:53;;;;;;;3.08;1.65;;;;;;;;;;5073898;28;20029;-68
2022/05/05 14:34:20;;;;;;;2.90;1.38;;;;;;;;;;5073372;28;20392;-69
2022/05/05 14:36:47;;;;;;;3.50;1.73;;;;;;;;;;5072322;28;20025;-68
2022/05/05 14:39:14;;;;;;;5.30;2.47;;;;;;;;;;5072326;28;20059;-68
2022/05/05 14:41:40;;;;;;;5.00;2.00;;;;;;;;;;5073119;28;20028;-69
2022/05/05 14:44:06;;;;;;;4.50;1.40;;;;;;;;;;5073885;28;20479;-69
2022/05/05 14:46:32;;;;;;;3.33;1.65;;;;;;;;;;5073536;28;20104;-69
2022/05/05 14:48:59;;;;;;;2.40;1.40;;;;;;;;;;5073060;28;20525;-69
2022/05/05 14:51:26;;;;;;;2.47;1.42;;;;;;;;;;5073367;28;20090;-69
2022/05/05 14:53:53;;;;;;;3.92;1.52;;;;;;;;;;5073266;28;20513;-69
2022/05/05 14:56:20;;;;;;;2.45;1.35;;;;;;;;;;5073111;28;20028;-69
2022/05/05 14:58:46;;;;;;;2.97;1.40;;;;;;;;;;5073693;28;20020;-69
2022/05/05 15:01:12;;;;;;;3.33;1.40;;;;;;;;;;5072739;28;20033;-69
2022/05/05 15:03:39;;;;;;;1.67;1.13;;;;;;;;;;5073429;28;20024;-69
2022/05/05 15:06:05;;;;;;;5.07;1.70;;;;;;;;;;5073361;28;20024;-69
2022/05/05 15:08:31;;;;;;;3.85;2.03;;;;;;;;;;5073120;28;20103;-69
2022/05/05 15:10:58;;;;;;;5.30;1.55;;;;;;;;;;5073240;28;20025;-69
2022/05/05 15:13:24;;;;;;;5.95;1.83;;;;;;;;;;5073166;28;20036;-69
2022/05/05 15:15:50;;;;;;;2.95;1.52;;;;;;;;;;5072795;28;20051;-69
2022/05/05 15:18:17;;;;;;;3.20;1.20;;;;;;;;;;5073037;28;20537;-69
2022/05/05 15:20:43;;;;;;;2.28;1.10;;;;;;;;;;5072746;28;20049;-69
2022/05/05 15:23:11;;;;;;;2.50;1.58;;;;;;;;;;5072454;28;20499;-69
2022/05/05 15:25:39;;;;;;;2.47;1.25;;;;;;;;;;5072997;28;20025;-69
2022/05/05 15:29:35;;;;;;;4.00;1.65;;;;;;;;;;5111104;27;20394;-68
2022/05/05 15:32:01;;;;;;;3.22;1.27;;;;;;;;;;5111062;28;20034;-69
2022/05/05 15:34:27;;;;;;;2.20;1.50;;;;;;;;;;5111277;28;20034;-68
2022/05/05 15:36:53;;;;;;;3.45;1.42;;;;;;;;;;5110632;28;20055;-68
2022/05/05 15:39:20;;;;;;;1.77;1.13;;;;;;;;;;5110933;28;20058;-68
2022/05/05 15:41:46;;;;;;;3.00;1.48;;;;;;;;;;5110990;28;20035;-68
2022/05/05 15:44:12;;;;;;;2.80;1.30;;;;;;;;;;5110571;28;20024;-68
2022/05/05 15:46:39;;;;;;;5.05;1.63;;;;;;;;;;5111130;28;20459;-68
2022/05/05 15:49:05;;;;;;;2.42;1.13;;;;;;;;;;5110736;28;20081;-68
2022/05/05 15:53:28;;;;;;;4.63;1.73;;;;;;;;;;5111637;27;20749;-68
2022/05/05 15:55:54;;;;;;;3.80;1.85;;;;;;;;;;5111173;28;20103;-68
2022/05/05 15:58:21;;;;;;;4.00;1.60;;;;;;;;;;5109452;28;20103;-68
2022/05/05 16:00:47;;;;;;;1.80;1.38;;;;;;;;;;5109799;28;20024;-68
2022/05/05 16:03:14;;;;;;;4.28;1.60;;;;;;;;;;5111081;28;20020;-69
2022/05/05 16:05:41;;;;;;;5.25;1.80;;;;;;;;;;5110500;28;20032;-68
2022/05/05 16:08:24;;;;;;;;;;;;;;;;;;5111993;27;20407;-67
2022/05/05 16:10:50;;;;;;;;;;;;;;;;;;5110252;28;19969;-68
2022/05/05 16:13:46;;;;;;;;;;;;;;;;;;5091542;27;19916;-68
2022/05/05 16:16:12;;;;;;;;;;;;;;;;;;5091176;28;19947;-68
2022/05/05 16:18:55;;;;;;;;;;;;;;;;;;5090973;27;19922;-68
2022/05/05 16:21:21;;;;;;;;;;;;;;;;;;5091241;28;19947;-68
2022/05/05 16:34:14;;;;;;;;;;;;;;;;;;5090821;27;19923;-67
2022/05/05 16:38:06;;;;;;;;;;;;;;;;;;5092017;27;19917;-67
2022/05/05 16:40:32;;;;;;;;;;;;;;;;;;5090973;28;20348;-68
2022/05/05 16:47:03;;;;;;;;;;;;;;;;;;5091306;27;19916;-68
2022/05/05 16:54:27;;;;;;;;;;;;;;;;;;5090977;27;19922;-68
2022/05/05 16:59:50;;;;;;;;;;;;;;;;;;5091411;27;20274;-67
2022/05/05 17:04:26;;;;;;;;;;;;;;;;;;5091188;27;19916;-67
2022/05/05 17:09:09;;;;;;;;;;;;;;;;;;5152438;27;19911;-68
2022/05/05 17:11:35;;;;;;;;;;;;;;;;;;5152650;27;19933;-67
2022/05/05 17:14:48;;;;;;;;;;;;;;;;;;5091288;27;20303;-67
2022/05/05 17:17:14;;;;;;;;;;;;;;;;;;5091482;28;20276;-68
2022/05/05 17:21:28;;;;;;;;;;;;;;;;;;5091553;27;20373;-67
2022/05/05 17:25:54;;;;;;;;;;;;;;;;;;5091175;27;19917;-68
2022/05/05 17:28:20;;;;;;;;;;;;;;;;;;5091195;28;19916;-69
2022/05/05 17:30:47;;;;;;;;;;;;;;;;;;5090689;28;19915;-68
2022/05/05 17:33:13;;;;;;;;;;;;;;;;;;5091299;28;19915;-68
2022/05/05 17:40:03;;;;;;;;;;;;;;;;;;5091966;27;19916;-67
2022/05/05 17:52:53;;;;;;;;;;;;;;;;;;5173600;27;19913;-68
2022/05/05 17:57:10;;;;;;;;;;;;;;;;;;5091417;28;19916;-69
2022/05/05 17:59:36;;;;;;;;;;;;;;;;;;5091197;28;19951;-69
2022/05/05 18:02:02;;;;;;;;;;;;;;;;;;5091203;28;19915;-69
2022/05/05 18:04:28;;;;;;;;;;;;;;;;;;5091190;28;20339;-69
2022/05/05 18:06:54;;;;;;;;;;;;;;;;;;5091037;28;19908;-69
2022/05/05 18:09:23;;;;;;;;;;;;;;;;;;5091234;28;19912;-69
2022/05/05 18:13:29;;;;;;;;;;;;;;;;;;5091322;27;20237;-69
2022/05/05 18:15:55;;;;;;;;;;;;;;;;;;5091262;28;19912;-68
2022/05/05 18:18:31;;;;;;;;;;;;;;;;;;5091285;27;19916;-68
2022/05/05 18:20:57;;;;;;;;;;;;;;;;;;5091085;28;19920;-68
2022/05/05 18:23:23;;;;;;;;;;;;;;;;;;5090649;28;20276;-67
2022/05/05 18:27:50;;;;;;;;;;;;;;;;;;5091487;27;19916;-67
2022/05/05 18:31:11;;;;;;;;;;;;;;;;;;5091357;28;19916;-68
2022/05/05 18:35:56;;;;;;;;;;;;;;;;;;5091139;27;19923;-67
2022/05/05 18:43:07;;;;;;;;;;;;;;;;;;5091521;27;19916;-67
2022/05/05 18:47:36;;;;;;;;;;;;;;;;;;5091181;27;19923;-68
2022/05/05 18:50:03;;;;;;;;;;;;;;;;;;5091238;28;19912;-69
2022/05/05 18:52:29;;;;;;;;;;;;;;;;;;5091171;28;19974;-68
2022/05/05 18:54:55;;;;;;;;;;;;;;;;;;5090759;28;19909;-69
2022/05/05 18:59:24;;;;;;;;;;;;;;;;;;5091816;27;19916;-67
2022/05/05 19:01:52;;;;;;;;;;;;;;;;;;5089428;28;20022;-67
2022/05/05 19:04:18;;;;;;;;;;;;;;;;;;5091245;28;19951;-67
2022/05/05 19:09:04;;;;;;;;;;;;;;;;;;5090936;27;19917;-67
2022/05/05 19:13:30;;;;;;;;;;;;;;;;;;5152675;27;20018;-68
2022/05/05 19:15:56;;;;;;;;;;;;;;;;;;5152354;27;20367;-68
2022/05/05 19:18:22;;;;;;;;;;;;;;;;;;5134180;27;20473;-69
2022/05/05 19:20:48;;;;;;;;;;;;;;;;;;5152714;27;19942;-68
2022/05/05 19:23:51;;;;;;;;;;;;;;;;;;5091115;27;19919;-69
2022/05/05 19:26:17;;;;;;;;;;;;;;;;;;5091173;28;19966;-68
2022/05/05 19:28:43;;;;;;;;;;;;;;;;;;5090690;28;19912;-68